Time;durP1;ratioP1;P1;durP2;ratioP2;P2;SDS_P1;SDS_P2;PMS_P1;PMS_P2;Temp;Humidity;BMP_temperature;BMP_pressure;BME280_temperature;BME280_humidity;BME280_pressure;Samples;Min_cycle;Max_cycle;Signal;HPM_P1;HPM_P2
2023/10/30 00:01:45;;;;;;;8.60;1.02;;;10.40;99.90;;;;;;5025362;28;20464;-63
2023/10/30 00:04:11;;;;;;;8.57;0.98;;;10.40;99.90;;;;;;5025731;28;20053;-63
2023/10/30 00:06:37;;;;;;;5.88;0.88;;;10.30;99.90;;;;;;5026886;28;20049;-63
2023/10/30 00:09:03;;;;;;;6.10;0.65;;;10.40;99.90;;;;;;4999989;28;20120;-63
2023/10/30 00:11:29;;;;;;;1.75;0.70;;;10.40;99.90;;;;;;5025784;28;20147;-63
2023/10/30 00:13:54;;;;;;;2.42;0.70;;;10.40;99.90;;;;;;5026489;28;20155;-63
2023/10/30 00:16:21;;;;;;;6.72;1.63;;;10.40;99.90;;;;;;5007057;28;20507;-63
2023/10/30 00:18:47;;;;;;;4.97;0.60;;;10.30;99.90;;;;;;5014279;28;20120;-63
2023/10/30 00:21:13;;;;;;;7.03;1.05;;;10.30;99.90;;;;;;5024471;28;20128;-63
2023/10/30 00:23:39;;;;;;;2.10;0.25;;;10.20;99.90;;;;;;5008224;28;20511;-63
2023/10/30 00:26:04;;;;;;;4.18;0.68;;;10.20;99.90;;;;;;5007072;28;20539;-64
2023/10/30 00:28:31;;;;;;;4.95;0.80;;;10.20;99.90;;;;;;5012236;28;20064;-63
2023/10/30 00:30:57;;;;;;;4.13;0.55;;;10.10;99.90;;;;;;5025967;28;20077;-63
2023/10/30 00:33:22;;;;;;;4.53;1.30;;;10.10;99.90;;;;;;5024668;28;20076;-63
2023/10/30 00:35:48;;;;;;;2.83;0.68;;;10.10;99.90;;;;;;5026318;28;20045;-63
2023/10/30 00:38:14;;;;;;;2.83;0.85;;;10.10;99.90;;;;;;5030062;28;20041;-63
2023/10/30 00:40:39;;;;;;;2.75;0.73;;;10.00;99.90;;;;;;5035469;28;20414;-63
2023/10/30 00:43:05;;;;;;;4.15;0.90;;;10.00;99.90;;;;;;5024619;28;20120;-63
2023/10/30 00:45:31;;;;;;;1.05;0.43;;;10.10;99.90;;;;;;5025806;28;20056;-64
2023/10/30 00:47:58;;;;;;;2.63;0.60;;;10.00;99.90;;;;;;5026012;28;20064;-63
2023/10/30 00:50:23;;;;;;;5.40;0.65;;;10.00;99.90;;;;;;5024770;28;20076;-63
2023/10/30 00:52:49;;;;;;;5.25;0.95;;;10.00;99.90;;;;;;5025943;28;20080;-64
2023/10/30 00:55:15;;;;;;;4.68;0.93;;;10.00;99.90;;;;;;5024766;28;20484;-64
2023/10/30 00:57:40;;;;;;;2.72;0.52;;;10.00;99.90;;;;;;5026954;28;20037;-64
2023/10/30 01:00:08;;;;;;;4.57;0.98;;;10.00;99.90;;;;;;5028390;28;20037;-63
2023/10/30 01:02:34;;;;;;;2.95;0.70;;;10.00;99.90;;;;;;5023897;28;20045;-63
2023/10/30 01:04:59;;;;;;;3.15;0.60;;;10.00;99.90;;;;;;5010695;28;20453;-64
2023/10/30 01:07:25;;;;;;;3.78;0.90;;;10.10;99.90;;;;;;5012926;28;20080;-64
2023/10/30 01:09:51;;;;;;;2.83;0.70;;;10.00;99.90;;;;;;5036604;28;20135;-64
2023/10/30 01:12:16;;;;;;;2.63;0.43;;;10.00;99.90;;;;;;5035117;28;20072;-64
2023/10/30 01:14:42;;;;;;;2.22;0.45;;;10.00;99.90;;;;;;5045929;28;20041;-64
2023/10/30 01:17:09;;;;;;;1.42;0.50;;;10.00;99.90;;;;;;5044706;28;20522;-64
2023/10/30 01:19:35;;;;;;;6.90;0.47;;;9.90;99.90;;;;;;5017373;28;20054;-63
2023/10/30 01:22:01;;;;;;;3.08;0.70;;;9.90;99.90;;;;;;5044934;28;20090;-63
2023/10/30 01:24:26;;;;;;;6.82;0.50;;;9.90;99.90;;;;;;5008442;28;20064;-64
2023/10/30 01:26:52;;;;;;;1.95;0.70;;;9.90;99.90;;;;;;5043935;28;20116;-63
2023/10/30 01:29:18;;;;;;;2.03;0.57;;;9.80;99.90;;;;;;5043512;28;20047;-63
2023/10/30 01:31:44;;;;;;;4.10;0.90;;;9.80;99.90;;;;;;5041387;28;20586;-63
2023/10/30 01:34:10;;;;;;;2.05;0.60;;;9.80;99.90;;;;;;5013752;28;20053;-64
2023/10/30 01:36:35;;;;;;;4.47;0.70;;;9.70;99.90;;;;;;5034462;28;20080;-63
2023/10/30 01:39:02;;;;;;;3.03;0.70;;;9.70;99.90;;;;;;5048414;28;20041;-63
2023/10/30 01:41:27;;;;;;;8.40;1.00;;;9.70;99.90;;;;;;5047219;28;20111;-64
2023/10/30 01:43:54;;;;;;;1.13;0.47;;;9.60;99.90;;;;;;5030401;28;20041;-64
2023/10/30 01:46:20;;;;;;;6.70;0.68;;;9.60;99.90;;;;;;5030226;28;20048;-64
2023/10/30 01:48:47;;;;;;;5.32;0.80;;;9.60;99.90;;;;;;5048429;28;20056;-63
2023/10/30 01:51:17;;;;;;;1.13;0.77;;;9.60;99.90;;;;;;5035662;28;20061;-64
2023/10/30 01:53:44;;;;;;;2.78;0.52;;;9.60;99.90;;;;;;5012087;28;20423;-63
2023/10/30 01:56:10;;;;;;;2.38;0.80;;;9.50;99.90;;;;;;5047426;28;20056;-63
2023/10/30 01:58:36;;;;;;;3.90;1.02;;;9.50;99.90;;;;;;5048018;28;20124;-64
2023/10/30 02:01:03;;;;;;;2.72;0.70;;;9.50;99.90;;;;;;5045751;28;20129;-64
2023/10/30 02:03:28;;;;;;;4.00;0.63;;;9.40;99.90;;;;;;5031234;28;20479;-63
2023/10/30 02:05:54;;;;;;;8.25;0.60;;;9.40;99.90;;;;;;5048111;28;20041;-64
2023/10/30 02:08:21;;;;;;;1.98;0.65;;;9.40;99.90;;;;;;5047472;28;20057;-63
2023/10/30 02:10:47;;;;;;;2.88;0.68;;;9.40;99.90;;;;;;4996803;28;20049;-63
2023/10/30 02:13:13;;;;;;;2.95;0.80;;;9.40;99.90;;;;;;5035325;28;20041;-63
2023/10/30 02:15:38;;;;;;;4.55;0.73;;;9.40;99.90;;;;;;5030088;28;20490;-63
2023/10/30 02:18:05;;;;;;;3.97;0.57;;;9.30;99.90;;;;;;5047569;28;20064;-63
2023/10/30 02:20:31;;;;;;;2.80;0.68;;;9.40;99.90;;;;;;5026740;28;20065;-63
2023/10/30 02:22:57;;;;;;;2.33;0.70;;;9.30;99.90;;;;;;5000789;28;20049;-63
2023/10/30 02:25:24;;;;;;;3.10;0.80;;;9.30;99.90;;;;;;5024294;28;20079;-63
2023/10/30 02:27:50;;;;;;;4.03;0.93;;;9.40;99.90;;;;;;5043294;28;20114;-63
2023/10/30 02:30:16;;;;;;;2.78;1.27;;;9.30;99.90;;;;;;5047221;28;20352;-63
2023/10/30 02:32:44;;;;;;;3.10;0.77;;;9.40;99.90;;;;;;5039361;28;20048;-63
2023/10/30 02:35:16;;;;;;;3.45;1.00;;;9.30;99.90;;;;;;5028520;28;20515;-63
2023/10/30 02:37:43;;;;;;;3.95;0.68;;;9.40;99.90;;;;;;5047108;28;20045;-63
2023/10/30 02:40:09;;;;;;;2.25;0.85;;;9.30;99.90;;;;;;5028647;28;20515;-64
2023/10/30 02:42:35;;;;;;;4.40;0.98;;;9.30;99.90;;;;;;5045673;28;20045;-64
2023/10/30 02:45:03;;;;;;;2.92;0.93;;;9.40;99.90;;;;;;5040173;28;20041;-63
2023/10/30 02:47:33;;;;;;;6.22;1.10;;;9.30;99.90;;;;;;5038131;28;20115;-64
2023/10/30 02:49:59;;;;;;;5.97;1.00;;;9.30;99.90;;;;;;5041225;28;20051;-63
2023/10/30 02:52:25;;;;;;;6.88;0.63;;;9.30;99.90;;;;;;5014746;28;20038;-64
2023/10/30 02:54:50;;;;;;;1.17;0.68;;;9.30;99.90;;;;;;4998704;28;20048;-64
2023/10/30 02:57:16;;;;;;;2.90;1.00;;;9.30;99.90;;;;;;5034780;28;20037;-64
2023/10/30 02:59:42;;;;;;;6.05;0.80;;;9.30;99.90;;;;;;4998757;28;20550;-63
2023/10/30 03:02:08;;;;;;;2.78;0.75;;;9.30;99.90;;;;;;5029507;28;20041;-64
2023/10/30 03:04:34;;;;;;;4.22;1.17;;;9.30;99.90;;;;;;5040298;28;20041;-63
2023/10/30 03:07:00;;;;;;;4.32;0.80;;;9.30;99.90;;;;;;5043090;28;20052;-64
2023/10/30 03:09:27;;;;;;;10.90;1.13;;;9.30;99.90;;;;;;5040386;28;20468;-63
2023/10/30 03:11:53;;;;;;;2.00;1.00;;;9.30;99.90;;;;;;5037403;28;20045;-64
2023/10/30 03:14:19;;;;;;;4.20;1.13;;;9.30;99.90;;;;;;5025589;28;20402;-64
2023/10/30 03:16:44;;;;;;;9.05;1.15;;;9.30;99.90;;;;;;5046281;28;20098;-64
2023/10/30 03:19:10;;;;;;;4.47;0.90;;;9.30;99.90;;;;;;5042204;28;20538;-64
2023/10/30 03:21:36;;;;;;;4.07;1.00;;;9.30;99.90;;;;;;5000194;28;20045;-64
2023/10/30 03:24:02;;;;;;;6.43;0.82;;;9.30;99.90;;;;;;5025179;28;20072;-64
2023/10/30 03:26:29;;;;;;;2.22;0.73;;;9.30;99.90;;;;;;5035833;28;20040;-64
2023/10/30 03:28:55;;;;;;;4.57;1.20;;;9.30;99.90;;;;;;5036987;28;20168;-63
2023/10/30 03:31:21;;;;;;;6.85;0.98;;;9.30;99.90;;;;;;5010614;28;20167;-64
2023/10/30 03:33:46;;;;;;;4.60;1.05;;;9.20;99.90;;;;;;5027431;28;20127;-64
2023/10/30 03:36:19;;;;;;;2.38;0.85;;;9.30;99.90;;;;;;5045473;28;20091;-63
2023/10/30 03:38:45;;;;;;;2.58;0.90;;;9.20;99.90;;;;;;5045464;28;20041;-64
2023/10/30 03:41:10;;;;;;;7.95;0.93;;;9.20;99.90;;;;;;5046894;28;20453;-64
2023/10/30 03:43:36;;;;;;;4.22;0.82;;;9.20;99.90;;;;;;5045316;28;20037;-64
2023/10/30 03:46:02;;;;;;;11.77;1.27;;;9.20;99.90;;;;;;5023633;28;20521;-64
2023/10/30 03:48:28;;;;;;;5.93;1.38;;;9.20;99.90;;;;;;5042650;28;20049;-64
2023/10/30 03:50:53;;;;;;;10.90;1.23;;;9.20;99.90;;;;;;5039063;28;20490;-64
2023/10/30 03:53:19;;;;;;;6.90;1.15;;;9.20;99.90;;;;;;5045643;28;20041;-64
2023/10/30 03:55:45;;;;;;;1.70;0.82;;;9.30;99.90;;;;;;5037094;28;20064;-63
2023/10/30 03:58:10;;;;;;;6.63;1.27;;;9.30;99.90;;;;;;5021713;28;20045;-64
2023/10/30 04:00:36;;;;;;;4.20;0.80;;;9.30;99.90;;;;;;5044869;28;20048;-64
2023/10/30 04:03:02;;;;;;;5.60;1.20;;;9.30;99.90;;;;;;5034560;28;20049;-63
2023/10/30 04:05:27;;;;;;;2.65;1.15;;;9.30;99.90;;;;;;5031847;28;20107;-64
2023/10/30 04:07:53;;;;;;;4.53;0.95;;;9.30;99.90;;;;;;5045805;28;20676;-64
2023/10/30 04:10:19;;;;;;;4.38;0.82;;;9.30;99.90;;;;;;5034018;28;20049;-64
2023/10/30 04:12:45;;;;;;;9.25;1.45;;;9.20;99.90;;;;;;5037675;28;20041;-64
2023/10/30 04:15:11;;;;;;;4.22;0.80;;;9.30;99.90;;;;;;5027849;28;20046;-64
2023/10/30 04:17:37;;;;;;;6.20;1.08;;;9.30;99.90;;;;;;5026950;28;20045;-64
2023/10/30 04:20:03;;;;;;;3.88;1.45;;;9.30;99.90;;;;;;5045960;28;20044;-64
2023/10/30 04:22:29;;;;;;;6.85;0.75;;;9.30;99.90;;;;;;5031986;28;20542;-64
2023/10/30 04:24:54;;;;;;;5.75;1.00;;;9.30;99.90;;;;;;5044783;28;20080;-64
2023/10/30 04:27:21;;;;;;;4.03;1.00;;;9.30;99.90;;;;;;5029756;28;20044;-64
2023/10/30 04:29:48;;;;;;;6.30;1.20;;;9.30;99.90;;;;;;5023564;28;20033;-64
2023/10/30 04:32:13;;;;;;;4.38;1.40;;;9.40;99.90;;;;;;5027242;28;20045;-64
2023/10/30 04:34:39;;;;;;;8.07;1.10;;;9.40;99.90;;;;;;5026429;28;20510;-64
2023/10/30 04:37:05;;;;;;;5.93;1.05;;;9.40;99.90;;;;;;5045895;28;20040;-64
2023/10/30 04:39:31;;;;;;;2.33;0.77;;;9.50;99.90;;;;;;5044797;28;20503;-64
2023/10/30 04:41:57;;;;;;;4.50;1.17;;;9.60;99.90;;;;;;5044588;28;20044;-64
2023/10/30 04:44:22;;;;;;;7.90;1.40;;;9.60;99.90;;;;;;5044969;28;20049;-63
2023/10/30 04:46:48;;;;;;;9.15;1.20;;;9.60;99.90;;;;;;5013292;28;20059;-63
2023/10/30 04:49:14;;;;;;;6.18;1.27;;;9.60;99.90;;;;;;5045265;28;20053;-64
2023/10/30 04:51:40;;;;;;;6.50;1.20;;;9.60;99.90;;;;;;5044070;28;20036;-64
2023/10/30 04:54:06;;;;;;;4.72;1.02;;;9.60;99.90;;;;;;5045285;28;20125;-64
2023/10/30 04:56:32;;;;;;;7.97;1.23;;;9.60;99.90;;;;;;5040339;28;20522;-63
2023/10/30 04:58:57;;;;;;;8.32;0.82;;;9.60;99.90;;;;;;5045570;28;20040;-64
2023/10/30 05:01:23;;;;;;;9.90;1.30;;;9.60;99.90;;;;;;5040345;28;20095;-64
2023/10/30 05:03:49;;;;;;;7.13;1.25;;;9.60;99.90;;;;;;5042723;28;20037;-64
2023/10/30 05:06:14;;;;;;;8.27;1.67;;;9.60;99.90;;;;;;5026768;28;20036;-64
2023/10/30 05:08:40;;;;;;;10.05;1.40;;;9.60;99.90;;;;;;5048467;28;20041;-64
2023/10/30 05:11:06;;;;;;;3.53;1.00;;;9.60;99.90;;;;;;5034181;28;20479;-64
2023/10/30 05:13:32;;;;;;;6.30;1.45;;;9.60;99.90;;;;;;5048106;28;20037;-63
2023/10/30 05:15:58;;;;;;;8.75;1.50;;;9.60;99.90;;;;;;5034359;28;20061;-63
2023/10/30 05:18:30;;;;;;;10.68;1.60;;;9.60;99.90;;;;;;5048668;28;20337;-63
2023/10/30 05:20:56;;;;;;;7.28;0.90;;;9.60;99.90;;;;;;5048845;28;20055;-63
2023/10/30 05:23:22;;;;;;;9.25;2.28;;;9.60;99.90;;;;;;5043178;28;20399;-63
2023/10/30 05:25:47;;;;;;;4.50;0.80;;;9.60;99.90;;;;;;5047128;28;20375;-63
2023/10/30 05:28:13;;;;;;;5.78;1.23;;;9.60;99.90;;;;;;5030595;28;20142;-63
2023/10/30 05:30:39;;;;;;;7.18;1.02;;;9.60;99.90;;;;;;5048743;28;20033;-63
2023/10/30 05:33:04;;;;;;;13.50;1.80;;;9.60;99.90;;;;;;5035804;28;20052;-63
2023/10/30 05:35:31;;;;;;;6.03;0.90;;;9.60;99.90;;;;;;5046693;28;20570;-63
2023/10/30 05:37:57;;;;;;;5.18;1.10;;;9.70;99.90;;;;;;5048673;28;20041;-63
2023/10/30 05:40:23;;;;;;;8.73;1.13;;;9.60;99.90;;;;;;5047860;28;20041;-63
2023/10/30 05:42:49;;;;;;;10.30;1.27;;;9.60;99.90;;;;;;5048622;28;20033;-63
2023/10/30 05:45:15;;;;;;;5.97;0.88;;;9.60;99.90;;;;;;5021596;28;20053;-63
2023/10/30 05:47:41;;;;;;;3.95;0.70;;;9.60;99.90;;;;;;5029833;28;20422;-63
2023/10/30 05:50:09;;;;;;;4.97;1.15;;;9.50;99.90;;;;;;5002393;28;20045;-64
2023/10/30 05:52:35;;;;;;;6.32;0.93;;;9.50;99.90;;;;;;5013671;28;20483;-63
2023/10/30 05:55:02;;;;;;;3.15;1.05;;;9.50;99.90;;;;;;5029470;28;20049;-64
2023/10/30 05:57:27;;;;;;;5.18;1.10;;;9.50;99.90;;;;;;5029756;28;20049;-64
2023/10/30 05:59:53;;;;;;;8.93;1.30;;;9.40;99.90;;;;;;5030369;28;20052;-64
2023/10/30 06:02:19;;;;;;;5.82;1.35;;;9.40;99.90;;;;;;5007160;28;20110;-64
2023/10/30 06:04:46;;;;;;;11.73;1.48;;;9.40;99.90;;;;;;5022807;28;20045;-64
2023/10/30 06:07:12;;;;;;;6.20;1.50;;;9.40;99.90;;;;;;5045100;28;20098;-63
2023/10/30 06:09:37;;;;;;;5.25;0.90;;;9.30;99.90;;;;;;5024220;28;20431;-64
2023/10/30 06:12:03;;;;;;;7.57;1.38;;;9.30;99.90;;;;;;5039498;28;20091;-63
2023/10/30 06:14:29;;;;;;;6.80;1.20;;;9.30;99.90;;;;;;5028412;28;20090;-64
2023/10/30 06:16:55;;;;;;;5.45;1.48;;;9.30;99.90;;;;;;5037730;28;20045;-64
2023/10/30 06:19:21;;;;;;;6.40;1.17;;;9.30;99.90;;;;;;5046288;28;20048;-63
2023/10/30 06:21:47;;;;;;;10.43;1.45;;;9.30;99.90;;;;;;5047944;28;20049;-63
2023/10/30 06:24:12;;;;;;;10.63;1.30;;;9.40;99.90;;;;;;5029373;28;20053;-64
2023/10/30 06:26:41;;;;;;;5.38;1.00;;;9.40;99.90;;;;;;5029072;28;20045;-64
2023/10/30 06:29:08;;;;;;;4.47;0.80;;;9.30;99.90;;;;;;5047434;28;20045;-63
2023/10/30 06:31:35;;;;;;;6.20;1.15;;;9.40;99.90;;;;;;5045896;28;20048;-64
2023/10/30 06:34:01;;;;;;;8.27;1.40;;;9.30;99.90;;;;;;5029619;28;20106;-63
2023/10/30 06:36:27;;;;;;;10.68;1.42;;;9.30;99.90;;;;;;5021442;28;20060;-63
2023/10/30 06:38:55;;;;;;;5.43;1.13;;;9.30;99.90;;;;;;5013617;28;20040;-63
2023/10/30 06:41:24;;;;;;;9.60;1.20;;;9.30;99.90;;;;;;5046543;28;20068;-63
2023/10/30 06:43:51;;;;;;;3.03;1.00;;;9.30;99.90;;;;;;5047562;28;20040;-63
2023/10/30 06:46:17;;;;;;;3.80;1.05;;;9.30;99.90;;;;;;5018569;28;20054;-63
2023/10/30 06:48:43;;;;;;;9.60;1.40;;;9.30;99.90;;;;;;5045829;28;20045;-63
2023/10/30 06:51:08;;;;;;;6.00;0.80;;;9.30;99.90;;;;;;5046770;28;20048;-63
2023/10/30 06:53:34;;;;;;;8.02;1.15;;;9.30;99.90;;;;;;5029446;28;20480;-63
2023/10/30 06:56:00;;;;;;;6.25;1.55;;;9.30;99.90;;;;;;5000422;28;20037;-63
2023/10/30 06:58:25;;;;;;;6.75;1.27;;;9.30;99.90;;;;;;5029928;28;20041;-63
2023/10/30 07:00:51;;;;;;;10.30;1.58;;;9.40;99.90;;;;;;5027221;28;20142;-63
2023/10/30 07:03:17;;;;;;;8.00;1.45;;;9.50;99.90;;;;;;4992061;28;20051;-63
2023/10/30 07:05:43;;;;;;;8.48;1.35;;;9.60;99.90;;;;;;5026685;28;20072;-63
2023/10/30 07:08:09;;;;;;;6.63;1.20;;;9.70;99.90;;;;;;5034783;28;20049;-63
2023/10/30 07:10:35;;;;;;;9.15;1.33;;;9.70;99.90;;;;;;5008555;28;20053;-63
2023/10/30 07:13:02;;;;;;;3.17;0.73;;;9.80;99.90;;;;;;5046106;28;20621;-63
2023/10/30 07:15:27;;;;;;;8.35;1.30;;;9.90;99.90;;;;;;5032091;28;20148;-63
2023/10/30 07:17:57;;;;;;;7.88;1.50;;;10.00;99.90;;;;;;5042890;28;20052;-63
2023/10/30 07:20:23;;;;;;;11.57;1.50;;;10.00;99.90;;;;;;5042244;28;20115;-63
2023/10/30 07:22:48;;;;;;;10.68;1.48;;;10.10;99.90;;;;;;5040135;28;20049;-63
2023/10/30 07:25:14;;;;;;;6.75;1.38;;;10.20;99.90;;;;;;5018226;28;20121;-64
2023/10/30 07:27:40;;;;;;;15.40;1.30;;;10.30;99.90;;;;;;5040077;28;20053;-63
2023/10/30 07:30:08;;;;;;;5.15;1.30;;;10.30;99.90;;;;;;5046572;28;20125;-63
2023/10/30 07:32:34;;;;;;;4.53;1.02;;;10.40;99.90;;;;;;5044590;28;20533;-63
2023/10/30 07:35:00;;;;;;;13.02;1.40;;;10.50;99.90;;;;;;5024976;28;20120;-63
2023/10/30 07:37:26;;;;;;;7.22;1.75;;;10.70;99.90;;;;;;5009800;28;20128;-63
2023/10/30 07:39:53;;;;;;;5.18;1.17;;;10.80;99.90;;;;;;5042800;28;20064;-63
2023/10/30 07:42:18;;;;;;;12.18;1.30;;;10.90;99.90;;;;;;5036804;28;20044;-63
2023/10/30 07:44:44;;;;;;;5.43;1.10;;;11.00;99.90;;;;;;5036170;28;20120;-63
2023/10/30 07:47:10;;;;;;;10.02;1.35;;;11.10;99.90;;;;;;5001827;28;20125;-63
2023/10/30 07:49:35;;;;;;;10.63;1.25;;;11.30;99.90;;;;;;5025555;28;20084;-63
2023/10/30 07:52:01;;;;;;;13.18;1.35;;;11.40;99.90;;;;;;5026796;28;20051;-63
2023/10/30 07:54:27;;;;;;;9.50;1.50;;;11.40;99.90;;;;;;5024907;28;20046;-63
2023/10/30 07:56:53;;;;;;;6.20;1.30;;;11.50;99.90;;;;;;5009655;28;20132;-63
2023/10/30 07:59:19;;;;;;;10.38;1.38;;;11.60;99.90;;;;;;5004708;28;20075;-63
2023/10/30 08:01:45;;;;;;;5.80;1.20;;;11.70;99.90;;;;;;5032082;28;20107;-63
2023/10/30 08:04:11;;;;;;;9.35;1.52;;;11.70;99.90;;;;;;5016894;28;20052;-63
2023/10/30 08:06:37;;;;;;;7.25;1.33;;;11.70;99.90;;;;;;5033332;28;20112;-63
2023/10/30 08:09:02;;;;;;;5.38;1.30;;;11.80;99.90;;;;;;5030294;28;20041;-63
2023/10/30 08:11:29;;;;;;;7.47;1.45;;;11.90;99.90;;;;;;5029296;28;20037;-63
2023/10/30 08:13:55;;;;;;;14.38;1.75;;;12.00;99.90;;;;;;5037100;28;20515;-64
2023/10/30 08:16:21;;;;;;;3.63;1.02;;;12.00;99.90;;;;;;5033122;28;20132;-64
2023/10/30 08:18:46;;;;;;;9.60;1.38;;;12.10;99.90;;;;;;5035704;28;20490;-63
2023/10/30 08:21:13;;;;;;;8.27;1.10;;;12.10;99.90;;;;;;5022330;28;20091;-63
2023/10/30 08:23:39;;;;;;;5.82;1.48;;;12.20;99.90;;;;;;5025986;28;20501;-63
2023/10/30 08:26:08;;;;;;;8.30;1.40;;;12.20;99.90;;;;;;5044321;28;20116;-63
2023/10/30 08:28:35;;;;;;;5.45;1.20;;;12.20;99.90;;;;;;5035520;28;20045;-63
2023/10/30 08:31:01;;;;;;;10.75;1.45;;;12.20;99.90;;;;;;5020086;28;20491;-63
2023/10/30 08:33:27;;;;;;;14.20;1.38;;;12.30;99.90;;;;;;5024432;28;20095;-63
2023/10/30 08:35:53;;;;;;;5.22;1.00;;;12.20;99.90;;;;;;5027499;28;20033;-62
2023/10/30 08:38:19;;;;;;;6.65;1.40;;;12.20;99.90;;;;;;5031202;28;20091;-63
2023/10/30 08:40:45;;;;;;;6.25;0.90;;;12.20;99.90;;;;;;5034624;28;20041;-63
2023/10/30 08:43:11;;;;;;;6.03;0.95;;;12.20;99.90;;;;;;5022406;28;20145;-63
2023/10/30 08:45:37;;;;;;;4.88;1.25;;;12.20;99.90;;;;;;5025411;28;20170;-62
2023/10/30 08:48:03;;;;;;;3.85;0.77;;;12.20;99.90;;;;;;5016280;28;20051;-63
2023/10/30 08:50:29;;;;;;;4.45;1.00;;;12.20;99.90;;;;;;5032279;28;20175;-63
2023/10/30 08:52:55;;;;;;;13.30;1.30;;;12.30;99.90;;;;;;5043174;28;20091;-63
2023/10/30 08:55:21;;;;;;;7.72;1.42;;;12.30;99.90;;;;;;5039015;28;20657;-62
2023/10/30 08:57:48;;;;;;;7.32;1.00;;;12.40;99.90;;;;;;5030712;28;20487;-63
2023/10/30 09:00:13;;;;;;;6.35;1.30;;;12.40;99.90;;;;;;5020417;28;20060;-63
2023/10/30 09:02:39;;;;;;;6.85;1.52;;;12.40;99.90;;;;;;5019528;28;20034;-62
2023/10/30 09:05:05;;;;;;;3.92;0.88;;;12.50;99.90;;;;;;5032238;28;20033;-62
2023/10/30 09:07:31;;;;;;;5.20;1.30;;;12.50;99.90;;;;;;5030890;28;20124;-63
2023/10/30 09:09:57;;;;;;;9.00;1.05;;;12.50;99.90;;;;;;5032127;28;20049;-62
2023/10/30 09:12:23;;;;;;;5.05;1.20;;;12.50;99.90;;;;;;5039783;28;20191;-63
2023/10/30 09:14:49;;;;;;;7.22;1.73;;;12.70;99.90;;;;;;5045475;28;20041;-62
2023/10/30 09:17:15;;;;;;;12.40;1.27;;;12.70;99.90;;;;;;5047983;28;20037;-63
2023/10/30 09:19:41;;;;;;;4.78;0.95;;;12.70;99.90;;;;;;5031114;28;20049;-62
2023/10/30 09:22:06;;;;;;;5.50;1.05;;;12.80;99.90;;;;;;5031525;28;20051;-62
2023/10/30 09:24:32;;;;;;;10.73;1.38;;;12.90;99.90;;;;;;5043504;28;20207;-63
2023/10/30 09:26:58;;;;;;;9.85;1.50;;;13.00;99.90;;;;;;5042055;28;20040;-63
2023/10/30 09:29:27;;;;;;;5.32;1.40;;;13.10;99.90;;;;;;5035690;28;20045;-63
2023/10/30 09:31:52;;;;;;;3.22;1.25;;;13.10;99.90;;;;;;5036499;28;20510;-62
2023/10/30 09:34:18;;;;;;;6.28;1.17;;;13.10;99.90;;;;;;5030903;28;20151;-62
2023/10/30 09:36:44;;;;;;;9.10;1.10;;;13.10;99.90;;;;;;5030745;28;20056;-62
2023/10/30 09:39:09;;;;;;;7.57;1.63;;;13.10;99.90;;;;;;5007669;28;20091;-62
2023/10/30 09:41:45;;;;;;;9.10;1.20;;;13.20;99.90;;;;;;5041500;28;20053;-62
2023/10/30 09:44:11;;;;;;;9.50;1.30;;;13.20;99.90;;;;;;5013738;28;20065;-63
2023/10/30 09:46:41;;;;;;;4.47;1.10;;;13.40;99.90;;;;;;5011349;28;20411;-63
2023/10/30 09:49:13;;;;;;;7.32;1.08;;;13.50;99.90;;;;;;5029471;28;20387;-63
2023/10/30 09:51:42;;;;;;;13.90;1.20;;;13.60;99.90;;;;;;5010489;28;20174;-62
2023/10/30 09:54:09;;;;;;;12.70;2.08;;;13.60;99.90;;;;;;4994409;28;20265;-63
2023/10/30 09:56:37;;;;;;;12.15;1.73;;;13.50;99.90;;;;;;5028312;28;20499;-63
2023/10/30 09:59:04;;;;;;;6.85;1.45;;;13.50;99.90;;;;;;4998226;28;20053;-63
2023/10/30 10:01:30;;;;;;;7.65;1.45;;;13.50;99.90;;;;;;5026637;28;20113;-63
2023/10/30 10:03:56;;;;;;;5.43;1.48;;;13.50;99.90;;;;;;4994089;28;20054;-63
2023/10/30 10:06:22;;;;;;;6.43;1.38;;;13.50;99.90;;;;;;5001866;28;20497;-63
2023/10/30 10:08:47;;;;;;;3.95;1.00;;;13.50;99.90;;;;;;5028010;28;20037;-62
2023/10/30 10:11:13;;;;;;;8.00;1.65;;;13.50;99.90;;;;;;5032116;28;20052;-63
2023/10/30 10:13:43;;;;;;;9.73;1.27;;;13.60;99.90;;;;;;5039994;28;20045;-62
2023/10/30 10:16:10;;;;;;;9.65;1.52;;;13.60;99.90;;;;;;4996952;28;20045;-63
2023/10/30 10:18:36;;;;;;;4.68;0.85;;;13.70;99.90;;;;;;5034481;28;20128;-62
2023/10/30 10:21:08;;;;;;;9.27;1.50;;;13.80;99.90;;;;;;5029735;28;20117;-63
2023/10/30 10:23:36;;;;;;;7.43;1.25;;;13.80;99.90;;;;;;5013546;28;20072;-63
2023/10/30 10:26:13;;;;;;;7.40;1.35;;;13.90;99.90;;;;;;5047431;28;20056;-63
2023/10/30 10:28:40;;;;;;;11.23;1.50;;;13.90;99.90;;;;;;5047100;28;20499;-62
2023/10/30 10:31:06;;;;;;;6.28;1.10;;;13.90;99.90;;;;;;5042416;28;20040;-63
2023/10/30 10:33:34;;;;;;;5.30;1.17;;;14.00;99.90;;;;;;5039726;28;20510;-63
2023/10/30 10:36:03;;;;;;;10.75;1.42;;;14.00;99.90;;;;;;5047946;28;20499;-63
2023/10/30 10:38:31;;;;;;;7.18;1.20;;;14.10;99.90;;;;;;5029137;28;20422;-63
2023/10/30 10:40:57;;;;;;;14.60;1.20;;;14.10;99.90;;;;;;5013319;28;20047;-62
2023/10/30 10:43:28;;;;;;;9.88;1.30;;;14.00;99.90;;;;;;5028531;28;20084;-62
2023/10/30 10:45:55;;;;;;;8.23;1.50;;;13.90;99.90;;;;;;5046567;28;20049;-63
2023/10/30 10:48:23;;;;;;;6.95;1.08;;;13.80;99.90;;;;;;5026450;28;20056;-63
2023/10/30 10:50:50;;;;;;;5.18;1.30;;;13.80;99.90;;;;;;5026789;28;20462;-63
2023/10/30 10:53:19;;;;;;;10.43;1.42;;;13.70;99.90;;;;;;4993358;28;20053;-63
2023/10/30 10:55:47;;;;;;;8.95;1.77;;;13.70;99.90;;;;;;5026557;28;20124;-62
2023/10/30 10:58:35;;;;;;;10.68;1.42;;;13.80;99.90;;;;;;5011782;28;20037;-63
2023/10/30 11:01:05;;;;;;;8.55;1.15;;;13.90;99.90;;;;;;5027068;28;20483;-62
2023/10/30 11:03:31;;;;;;;;;;;13.90;99.90;;;;;;5009261;28;20554;-63
2023/10/30 11:05:58;;;;;;;8.27;1.17;;;14.00;99.90;;;;;;5026563;28;19925;-63
2023/10/30 11:08:50;;;;;;;7.05;1.30;;;14.00;99.90;;;;;;4991146;28;20529;-63
2023/10/30 11:11:47;;;;;;;6.85;1.35;;;14.00;99.90;;;;;;5013013;28;20056;-63
2023/10/30 11:14:38;;;;;;;12.43;1.95;;;14.10;99.90;;;;;;5015075;28;20428;-63
2023/10/30 11:17:05;;;;;;;9.25;1.38;;;14.10;99.90;;;;;;5046345;28;20048;-63
2023/10/30 11:19:37;;;;;;;9.60;1.58;;;14.20;99.90;;;;;;5044135;28;20081;-63
2023/10/30 11:22:03;;;;;;;5.43;1.10;;;14.20;99.90;;;;;;5032311;28;20076;-63
2023/10/30 11:24:40;;;;;;;3.22;1.20;;;14.30;99.90;;;;;;4983180;28;20067;-63
2023/10/30 11:27:25;;;;;;;10.98;1.38;;;14.30;99.90;;;;;;5030544;28;20454;-63
2023/10/30 11:29:56;;;;;;;4.85;0.95;;;14.40;99.90;;;;;;5038598;28;20584;-62
2023/10/30 11:32:24;;;;;;;4.72;1.35;;;14.40;99.90;;;;;;5033146;28;20168;-62
2023/10/30 11:34:50;;;;;;;12.75;1.75;;;14.50;99.90;;;;;;5040318;28;20064;-63
2023/10/30 11:37:18;;;;;;;10.98;1.88;;;14.50;99.90;;;;;;5011360;28;20053;-62
2023/10/30 11:39:45;;;;;;;7.25;1.40;;;14.50;99.90;;;;;;5024694;28;20092;-63
2023/10/30 11:42:42;;;;;;;6.05;0.68;;;14.50;99.90;;;;;;5033469;28;20373;-63
2023/10/30 11:45:18;;;;;;;5.45;1.20;;;14.50;99.90;;;;;;5012362;28;20053;-62
2023/10/30 11:47:48;;;;;;;9.60;1.60;;;14.50;99.90;;;;;;5024372;28;20098;-62
2023/10/30 11:50:18;;;;;;;11.30;1.48;;;14.40;99.90;;;;;;5018529;28;20045;-63
2023/10/30 11:52:46;;;;;;;7.05;1.63;;;14.30;99.90;;;;;;4991024;28;20049;-63
2023/10/30 11:55:12;;;;;;;10.48;1.42;;;14.30;99.90;;;;;;5025276;28;20057;-62
2023/10/30 11:57:38;;;;;;;7.13;1.27;;;14.30;99.90;;;;;;5027038;28;20467;-62
2023/10/30 12:00:05;;;;;;;6.88;1.13;;;14.30;99.90;;;;;;5024894;28;20041;-62
2023/10/30 12:02:31;;;;;;;8.18;1.08;;;14.40;99.90;;;;;;5026320;28;20049;-62
2023/10/30 12:05:06;;;;;;;10.68;1.40;;;14.40;99.90;;;;;;5025158;28;20121;-62
2023/10/30 12:07:32;;;;;;;10.57;1.25;;;14.50;99.90;;;;;;5005523;28;20038;-62
2023/10/30 12:10:02;;;;;;;6.95;1.00;;;14.40;99.90;;;;;;5026592;28;20384;-62
2023/10/30 12:12:29;;;;;;;8.90;1.45;;;14.40;99.90;;;;;;5013673;28;20051;-62
2023/10/30 12:14:59;;;;;;;7.47;1.40;;;14.40;99.90;;;;;;5027969;28;20049;-62
2023/10/30 12:17:25;;;;;;;5.22;0.98;;;14.40;99.90;;;;;;5044593;28;20116;-62
2023/10/30 12:19:51;;;;;;;15.63;1.75;;;14.50;99.90;;;;;;5045696;28;20445;-62
2023/10/30 12:22:17;;;;;;;6.07;1.17;;;14.50;99.90;;;;;;5027142;28;20049;-62
2023/10/30 12:24:43;;;;;;;6.90;1.70;;;14.50;99.90;;;;;;5044705;28;20045;-62
2023/10/30 12:27:17;;;;;;;5.90;1.35;;;14.50;99.90;;;;;;5044993;28;20056;-62
2023/10/30 12:29:43;;;;;;;6.50;1.35;;;14.50;99.90;;;;;;5045090;28;20315;-62
2023/10/30 12:32:09;;;;;;;5.55;1.33;;;14.40;99.90;;;;;;5019581;28;20491;-62
2023/10/30 12:34:38;;;;;;;6.75;1.50;;;14.30;99.90;;;;;;5039544;28;20098;-62
2023/10/30 12:37:26;;;;;;;8.40;1.23;;;14.30;99.90;;;;;;5036965;28;20581;-62
2023/10/30 12:40:07;;;;;;;4.72;1.23;;;14.30;99.90;;;;;;5041322;28;20390;-62
2023/10/30 12:42:38;;;;;;;8.40;1.52;;;14.30;99.90;;;;;;5045544;28;20095;-62
2023/10/30 12:45:08;;;;;;;9.05;1.00;;;14.30;99.90;;;;;;5042256;28;20560;-62
2023/10/30 12:47:34;;;;;;;;;;;14.30;99.90;;;;;;5022082;28;20060;-62
2023/10/30 12:50:00;;;;;;;11.45;1.55;;;14.30;99.90;;;;;;5061415;28;19920;-62